Time;durP1;ratioP1;P1;durP2;ratioP2;P2;SDS_P1;SDS_P2;PMS_P1;PMS_P2;Temp;Humidity;BMP_temperature;BMP_pressure;BME280_temperature;BME280_humidity;BME280_pressure;Samples;Min_cycle;Max_cycle;Signal;HPM_P1;HPM_P2
2023/04/04 00:00:28;;;;;;;5.50;2.00;;;;;;;2.82;100.00;102627.38;4938203;29;20043;-76
2023/04/04 00:02:54;;;;;;;4.18;1.92;;;;;;;2.80;100.00;102624.72;4921315;29;20078;-77
2023/04/04 00:05:19;;;;;;;6.00;1.80;;;;;;;2.64;100.00;102607.88;4931369;29;20043;-77
2023/04/04 00:07:46;;;;;;;10.45;1.88;;;;;;;2.71;100.00;102622.19;4922409;29;20046;-76
2023/04/04 00:10:11;;;;;;;3.08;1.70;;;;;;;2.58;100.00;102616.09;4934831;29;20044;-76
2023/04/04 00:12:37;;;;;;;6.38;2.10;;;;;;;2.69;100.00;102624.00;4934122;29;20402;-79
2023/04/04 00:15:03;;;;;;;12.13;1.95;;;;;;;2.58;100.00;102626.91;4908945;29;20103;-76
2023/04/04 00:17:29;;;;;;;6.20;2.10;;;;;;;2.68;100.00;102630.34;4938064;29;20059;-77
2023/04/04 00:19:56;;;;;;;3.75;1.75;;;;;;;2.59;100.00;102628.66;4949692;29;20040;-77
2023/04/04 00:22:21;;;;;;;5.85;2.35;;;;;;;2.46;100.00;102628.00;4916805;29;20070;-76
2023/04/04 00:24:47;;;;;;;4.65;2.00;;;;;;;2.49;100.00;102640.56;4909605;29;20040;-77
2023/04/04 00:27:13;;;;;;;7.20;2.13;;;;;;;2.38;100.00;102638.06;4933277;29;20526;-77
2023/04/04 00:29:38;;;;;;;5.70;2.05;;;;;;;2.36;100.00;102634.47;4924032;29;20036;-77
2023/04/04 00:32:04;;;;;;;6.47;2.15;;;;;;;2.42;100.00;102631.66;4943520;29;20043;-77
2023/04/04 00:34:30;;;;;;;4.85;1.83;;;;;;;2.69;100.00;102627.63;4921242;29;20036;-77
2023/04/04 00:36:55;;;;;;;7.07;2.28;;;;;;;2.56;100.00;102616.13;4953260;29;20044;-77
2023/04/04 00:39:22;;;;;;;5.93;2.33;;;;;;;2.65;100.00;102630.41;4937280;29;20131;-77
2023/04/04 00:41:48;;;;;;;5.05;2.10;;;;;;;2.48;100.00;102609.06;4952937;29;20040;-78
2023/04/04 00:44:14;;;;;;;5.00;1.90;;;;;;;2.35;100.00;102625.47;4920879;29;20040;-77
2023/04/04 00:46:40;;;;;;;6.68;1.83;;;;;;;2.32;100.00;102630.91;4920165;29;20051;-77
2023/04/04 00:49:05;;;;;;;11.13;2.60;;;;;;;2.44;100.00;102634.34;4920231;29;20040;-78
2023/04/04 00:51:31;;;;;;;6.57;2.00;;;;;;;2.57;100.00;102644.94;4937313;29;20034;-77
2023/04/04 00:53:57;;;;;;;8.30;2.50;;;;;;;2.48;100.00;102638.81;4942744;29;20055;-77
2023/04/04 00:56:24;;;;;;;4.72;1.92;;;;;;;2.48;100.00;102636.09;4918914;29;20039;-78
2023/04/04 00:58:50;;;;;;;5.85;2.20;;;;;;;2.44;100.00;102620.84;4904262;29;20051;-77
2023/04/04 01:01:16;;;;;;;4.55;2.20;;;;;;;2.69;100.00;102629.41;4939187;29;20042;-76
2023/04/04 01:03:41;;;;;;;4.97;2.05;;;;;;;2.63;100.00;102633.13;4918933;29;20027;-77
2023/04/04 01:06:10;;;;;;;11.75;2.30;;;;;;;2.50;100.00;102631.56;4919630;29;20035;-77
2023/04/04 01:08:39;;;;;;;5.40;2.67;;;;;;;2.44;100.00;102640.63;4931086;29;20080;-78
2023/04/04 01:11:05;;;;;;;7.72;2.20;;;;;;;2.30;100.00;102634.59;4933471;29;20033;-78
2023/04/04 01:13:31;;;;;;;9.85;2.08;;;;;;;2.24;100.00;102627.44;4905211;29;20399;-78
2023/04/04 01:15:57;;;;;;;7.80;2.30;;;;;;;2.22;100.00;102623.00;4950803;29;20038;-77
2023/04/04 01:18:25;;;;;;;8.27;2.28;;;;;;;2.31;100.00;102628.25;4919797;29;20130;-78
2023/04/04 01:20:56;;;;;;;7.18;3.08;;;;;;;2.27;100.00;102631.94;4912308;29;20032;-77
2023/04/04 01:23:28;;;;;;;3.17;2.00;;;;;;;2.25;100.00;102625.63;4937545;29;20039;-77
2023/04/04 01:26:04;;;;;;;5.22;1.88;;;;;;;2.13;100.00;102627.63;4944608;29;20095;-77
2023/04/04 01:28:29;;;;;;;4.18;1.90;;;;;;;2.13;100.00;102630.34;4921286;29;20059;-77
2023/04/04 01:30:58;;;;;;;11.38;2.88;;;;;;;2.04;100.00;102624.19;4934334;29;20510;-77
2023/04/04 01:33:50;;;;;;;10.85;3.33;;;;;;;2.07;100.00;102626.84;4937319;29;20063;-77
2023/04/04 01:36:24;;;;;;;7.93;2.33;;;;;;;1.81;100.00;102620.88;4934692;29;20036;-77
2023/04/04 01:39:14;;;;;;;9.73;2.40;;;;;;;1.81;100.00;102622.69;4938072;29;20091;-77
2023/04/04 01:41:40;;;;;;;7.25;2.63;;;;;;;1.75;100.00;102615.56;4938209;29;20476;-77
2023/04/04 01:44:08;;;;;;;5.25;1.80;;;;;;;1.87;100.00;102617.22;4919716;29;20036;-77
2023/04/04 01:46:35;;;;;;;7.20;2.50;;;;;;;2.00;100.00;102604.38;4937741;29;20059;-77
2023/04/04 01:49:03;;;;;;;5.90;2.03;;;;;;;2.16;100.00;102596.94;4920994;29;20034;-77
2023/04/04 01:51:29;;;;;;;9.68;2.63;;;;;;;2.08;100.00;102597.06;4926266;29;20431;-77
2023/04/04 01:53:55;;;;;;;9.73;2.10;;;;;;;1.93;100.00;102600.91;4951254;29;20051;-76
2023/04/04 01:56:20;;;;;;;5.45;1.77;;;;;;;1.69;100.00;102590.44;4939338;29;20039;-77
2023/04/04 01:58:46;;;;;;;8.38;2.30;;;;;;;1.77;100.00;102599.31;4951786;29;20058;-77
2023/04/04 02:01:11;;;;;;;4.47;2.30;;;;;;;1.74;100.00;102592.19;4917675;29;20038;-77
2023/04/04 02:03:37;;;;;;;5.28;2.30;;;;;;;1.84;100.00;102601.06;4908918;29;20071;-77
2023/04/04 02:06:02;;;;;;;5.13;1.92;;;;;;;1.69;100.00;102596.75;4917671;29;20036;-77
2023/04/04 02:08:28;;;;;;;9.27;2.50;;;;;;;1.70;100.00;102603.03;4907591;29;20031;-77
2023/04/04 02:10:57;;;;;;;3.78;2.03;;;;;;;1.68;100.00;102602.19;4913429;29;20044;-77
2023/04/04 02:13:22;;;;;;;4.53;2.10;;;;;;;1.50;100.00;102589.81;4921889;29;20039;-78
2023/04/04 02:15:50;;;;;;;4.15;2.13;;;;;;;1.48;100.00;102600.63;4937045;29;20039;-77
2023/04/04 02:18:15;;;;;;;2.75;1.85;;;;;;;1.46;100.00;102602.47;4925177;29;20090;-77
2023/04/04 02:20:41;;;;;;;5.85;2.65;;;;;;;1.41;100.00;102612.41;4935926;29;20039;-77
2023/04/04 02:23:06;;;;;;;8.88;2.47;;;;;;;1.40;100.00;102608.81;4903124;29;20048;-77
2023/04/04 02:25:32;;;;;;;6.53;2.33;;;;;;;1.51;100.00;102611.41;4928999;29;20444;-77
2023/04/04 02:27:58;;;;;;;5.18;2.30;;;;;;;1.56;100.00;102611.31;4918604;29;20115;-77
2023/04/04 02:30:23;;;;;;;7.63;2.30;;;;;;;1.50;100.00;102616.81;4950593;29;20049;-77
2023/04/04 02:32:49;;;;;;;5.28;2.60;;;;;;;1.44;100.00;102607.88;4936293;29;20056;-78
2023/04/04 02:35:16;;;;;;;6.82;2.80;;;;;;;1.39;100.00;102600.75;4949911;29;20039;-77
2023/04/04 02:37:46;;;;;;;4.68;2.60;;;;;;;1.51;100.00;102611.41;4919894;29;20070;-78
2023/04/04 02:40:12;;;;;;;8.18;2.50;;;;;;;1.49;100.00;102601.53;4920510;29;20035;-77
2023/04/04 02:42:42;;;;;;;6.10;2.35;;;;;;;1.36;100.00;102601.69;4927319;29;20115;-78
2023/04/04 02:45:08;;;;;;;7.20;2.30;;;;;;;1.44;100.00;102604.28;4938044;29;20031;-78
2023/04/04 02:47:34;;;;;;;5.53;2.47;;;;;;;1.40;100.00;102606.13;4934791;29;20087;-78
2023/04/04 02:50:00;;;;;;;7.47;2.47;;;;;;;1.46;100.00;102606.06;4919203;29;20035;-78
2023/04/04 02:52:25;;;;;;;7.82;2.53;;;;;;;1.47;100.00;102605.13;4934586;28;20132;-78
2023/04/04 02:54:51;;;;;;;10.63;2.88;;;;;;;1.46;100.00;102605.16;4933236;29;20138;-79
2023/04/04 02:57:17;;;;;;;6.93;2.53;;;;;;;1.30;100.00;102607.16;4929884;29;20035;-78
2023/04/04 02:59:42;;;;;;;9.07;2.50;;;;;;;1.33;100.00;102599.03;4935188;29;20110;-79
2023/04/04 03:02:07;;;;;;;8.10;2.47;;;;;;;1.31;100.00;102611.63;4928667;29;20036;-78
2023/04/04 03:04:35;;;;;;;9.32;2.15;;;;;;;1.24;100.00;102602.72;4945333;29;20096;-78
2023/04/04 03:07:02;;;;;;;11.70;2.42;;;;;;;1.28;100.00;102601.78;4930160;29;20046;-78
2023/04/04 03:09:27;;;;;;;5.05;2.78;;;;;;;1.21;100.00;102597.34;4915233;29;20407;-78
2023/04/04 03:11:53;;;;;;;7.82;2.35;;;;;;;1.21;100.00;102600.03;4937107;29;20032;-77
2023/04/04 03:14:18;;;;;;;7.13;2.55;;;;;;;1.17;100.00;102600.13;4932912;29;20031;-78
2023/04/04 03:16:44;;;;;;;7.68;3.38;;;;;;;1.21;100.00;102602.75;4949132;29;20384;-78
2023/04/04 03:19:09;;;;;;;10.88;2.95;;;;;;;1.14;100.00;102601.03;4909743;29;20035;-78
2023/04/04 03:21:35;;;;;;;8.32;2.58;;;;;;;1.23;100.00;102598.25;4938487;29;20095;-78
2023/04/04 03:24:00;;;;;;;9.18;2.95;;;;;;;1.26;100.00;102595.50;4939293;29;20095;-77
2023/04/04 03:26:28;;;;;;;4.72;2.72;;;;;;;1.23;100.00;102583.84;4921072;29;20118;-78
2023/04/04 03:28:53;;;;;;;4.93;2.72;;;;;;;1.07;100.00;102566.97;4922177;29;20047;-77
2023/04/04 03:31:19;;;;;;;7.43;2.45;;;;;;;1.15;100.00;102589.34;4939786;29;20051;-77
2023/04/04 03:33:44;;;;;;;7.60;3.47;;;;;;;1.25;100.00;102593.72;4922191;29;20038;-78
2023/04/04 03:36:11;;;;;;;11.23;2.65;;;;;;;1.16;100.00;102593.81;4919414;29;20036;-77
2023/04/04 03:38:37;;;;;;;5.97;2.60;;;;;;;1.18;100.00;102601.88;4920680;29;20034;-77
2023/04/04 03:41:04;;;;;;;11.32;3.55;;;;;;;1.21;100.00;102597.34;4955179;29;20432;-78
2023/04/04 03:43:31;;;;;;;9.23;2.88;;;;;;;1.21;100.00;102594.66;4923443;29;20036;-77
2023/04/04 03:46:04;;;;;;;9.18;3.03;;;;;;;1.17;100.00;102598.31;4937619;29;20101;-78
2023/04/04 03:48:30;;;;;;;8.57;2.85;;;;;;;1.23;100.00;102605.41;4925847;29;20512;-78
2023/04/04 03:50:56;;;;;;;11.65;2.92;;;;;;;1.06;100.00;102598.41;4907828;29;20039;-77
2023/04/04 03:53:23;;;;;;;11.50;3.20;;;;;;;0.76;100.00;102575.38;4936897;29;20031;-77
2023/04/04 03:55:49;;;;;;;5.82;2.85;;;;;;;0.76;100.00;102579.91;4953806;29;20032;-78
2023/04/04 03:58:14;;;;;;;10.20;3.35;;;;;;;0.80;100.00;102601.41;4938213;29;20036;-77
2023/04/04 04:00:40;;;;;;;5.97;2.88;;;;;;;0.91;100.00;102587.81;4923196;29;20471;-77
2023/04/04 04:03:05;;;;;;;7.18;3.00;;;;;;;0.89;100.00;102589.63;4952084;29;20043;-78
2023/04/04 04:05:31;;;;;;;9.25;3.20;;;;;;;0.96;100.00;102582.38;4922395;29;20036;-78
2023/04/04 04:07:56;;;;;;;7.57;2.60;;;;;;;0.98;100.00;102575.16;4923262;29;20039;-78
2023/04/04 04:10:22;;;;;;;8.32;3.55;;;;;;;1.08;100.00;102574.13;4937678;29;20127;-77
2023/04/04 04:12:48;;;;;;;7.55;3.00;;;;;;;0.99;100.00;102585.03;4904268;29;20036;-77
2023/04/04 04:15:13;;;;;;;11.13;3.47;;;;;;;1.10;100.00;102577.72;4906563;29;20039;-77
2023/04/04 04:17:39;;;;;;;8.07;2.75;;;;;;;1.05;100.00;102590.34;4945802;29;20415;-78
2023/04/04 04:20:09;;;;;;;8.73;3.08;;;;;;;0.85;100.00;102580.69;4921400;29;20055;-77
2023/04/04 04:22:35;;;;;;;5.97;2.78;;;;;;;0.94;100.00;102581.50;4936524;29;20044;-77
2023/04/04 04:25:00;;;;;;;6.78;3.28;;;;;;;1.05;100.00;102572.38;4923021;29;20039;-78
2023/04/04 04:27:26;;;;;;;7.53;3.22;;;;;;;0.90;100.00;102572.53;4892065;29;20040;-79
2023/04/04 04:29:51;;;;;;;11.60;3.17;;;;;;;0.96;100.00;102579.69;4921531;29;20195;-77
2023/04/04 04:32:17;;;;;;;7.60;3.05;;;;;;;0.85;100.00;102580.69;4935630;29;20115;-76
2023/04/04 04:34:43;;;;;;;6.90;2.75;;;;;;;0.88;100.00;102575.25;4931522;29;20479;-77
2023/04/04 04:37:08;;;;;;;6.43;3.00;;;;;;;0.78;100.00;102580.78;4890211;29;20043;-77
2023/04/04 04:39:35;;;;;;;7.03;3.08;;;;;;;0.75;100.00;102580.78;4939659;29;20459;-79
2023/04/04 04:42:01;;;;;;;16.77;3.45;;;;;;;0.73;100.00;102584.38;4938225;29;20051;-78
2023/04/04 04:44:27;;;;;;;8.05;3.55;;;;;;;0.64;100.00;102570.09;4929090;29;20144;-79
2023/04/04 04:46:52;;;;;;;10.90;3.45;;;;;;;0.73;100.00;102579.00;4938594;29;20096;-79
2023/04/04 04:49:17;;;;;;;9.52;3.70;;;;;;;0.76;100.00;102586.19;4905499;29;20046;-77
2023/04/04 04:51:43;;;;;;;8.48;3.50;;;;;;;0.63;100.00;102566.53;4917817;29;20407;-77
2023/04/04 04:54:09;;;;;;;6.05;3.65;;;;;;;0.61;100.00;102586.31;4935200;29;20047;-76
2023/04/04 04:56:35;;;;;;;12.57;3.53;;;;;;;0.63;100.00;102584.50;4932273;29;21574;-77
2023/04/04 04:59:01;;;;;;;9.85;3.63;;;;;;;0.70;100.00;102579.03;4905499;29;20154;-76
2023/04/04 05:01:27;;;;;;;9.38;3.05;;;;;;;0.61;100.00;102576.44;4918245;29;21518;-76
2023/04/04 05:03:52;;;;;;;10.10;3.70;;;;;;;0.55;100.00;102579.19;4916026;29;20039;-76
2023/04/04 05:06:17;;;;;;;10.27;3.90;;;;;;;0.50;100.00;102581.91;4912114;29;20050;-76
2023/04/04 05:08:43;;;;;;;8.55;3.78;;;;;;;0.49;100.00;102590.94;4920969;29;20044;-77
2023/04/04 05:11:08;;;;;;;8.55;3.20;;;;;;;0.39;100.00;102577.53;4906364;29;20024;-77
2023/04/04 05:13:34;;;;;;;8.93;3.50;;;;;;;0.31;100.00;102589.28;4905496;29;20559;-77
2023/04/04 05:16:00;;;;;;;9.10;3.78;;;;;;;0.31;100.00;102596.44;4911607;29;20040;-76
2023/04/04 05:18:26;;;;;;;8.50;3.42;;;;;;;0.36;100.00;102594.63;4914104;29;20533;-76
2023/04/04 05:20:55;;;;;;;13.65;4.00;;;;;;;0.37;100.00;102609.88;4922169;29;20051;-77
2023/04/04 05:23:21;;;;;;;9.32;4.13;;;;;;;0.39;100.00;102605.38;4936106;29;20095;-77
2023/04/04 05:25:52;;;;;;;4.97;3.65;;;;;;;0.58;100.00;102607.91;4938872;29;20412;-77
2023/04/04 05:28:20;;;;;;;8.23;3.63;;;;;;;0.57;100.00;102609.69;4939323;29;20127;-77
2023/04/04 05:30:46;;;;;;;5.53;3.10;;;;;;;0.58;100.00;102607.91;4920736;29;20487;-78
2023/04/04 05:33:11;;;;;;;14.07;3.85;;;;;;;0.69;100.00;102601.53;4938786;29;20127;-77
2023/04/04 05:35:37;;;;;;;7.32;3.72;;;;;;;0.74;100.00;102614.97;4920360;29;20042;-76
2023/04/04 05:38:02;;;;;;;5.97;3.05;;;;;;;0.72;100.00;102603.28;4905420;29;20038;-77
2023/04/04 05:40:28;;;;;;;6.55;3.42;;;;;;;0.81;100.00;102607.69;4953626;29;20091;-78
2023/04/04 05:42:58;;;;;;;5.40;3.50;;;;;;;0.79;100.00;102601.41;4947039;29;20440;-78
2023/04/04 05:45:23;;;;;;;7.65;3.35;;;;;;;0.88;100.00;102613.00;4916467;29;20050;-77
2023/04/04 05:47:49;;;;;;;21.30;4.05;;;;;;;0.79;100.00;102613.09;4936156;28;20059;-78
2023/04/04 05:50:15;;;;;;;9.02;3.72;;;;;;;0.92;100.00;102603.09;4952827;29;20091;-77
2023/04/04 05:52:40;;;;;;;11.95;3.80;;;;;;;0.94;100.00;102614.75;4930815;29;20032;-78
2023/04/04 05:55:06;;;;;;;8.75;3.50;;;;;;;0.98;100.00;102621.88;4887072;29;20063;-77
2023/04/04 05:57:32;;;;;;;9.75;4.53;;;;;;;1.01;100.00;102624.56;4920231;29;20091;-77
2023/04/04 05:59:57;;;;;;;8.55;3.97;;;;;;;1.16;100.00;102626.19;4902327;29;20415;-77
2023/04/04 06:02:23;;;;;;;8.23;3.90;;;;;;;1.45;100.00;102628.53;4936921;29;20126;-77
2023/04/04 06:04:49;;;;;;;10.07;3.85;;;;;;;1.44;100.00;102629.47;4949634;29;20035;-78
2023/04/04 06:07:15;;;;;;;10.18;4.75;;;;;;;1.67;100.00;102639.06;4922804;29;20105;-78
2023/04/04 06:09:41;;;;;;;7.75;3.60;;;;;;;2.10;100.00;102635.78;4920533;29;20042;-78
2023/04/04 06:12:08;;;;;;;11.75;4.70;;;;;;;2.12;100.00;102633.06;4936500;29;20431;-78
2023/04/04 06:14:35;;;;;;;16.08;4.57;;;;;;;2.51;100.00;102638.72;4911122;29;20474;-78
2023/04/04 06:17:04;;;;;;;11.27;3.85;;;;;;;2.67;100.00;102643.00;4938070;29;20046;-78
2023/04/04 06:19:29;;;;;;;7.97;3.53;;;;;;;2.42;100.00;102638.91;4944017;29;20063;-78
2023/04/04 06:21:55;;;;;;;7.70;4.03;;;;;;;2.30;100.00;102634.59;4894405;29;20063;-80
2023/04/04 06:24:20;;;;;;;10.77;3.38;;;;;;;2.52;100.00;102644.09;4940424;29;20039;-79
2023/04/04 06:26:50;;;;;;;12.05;4.85;;;;;;;2.63;100.00;102643.94;4934241;29;20039;-79
2023/04/04 06:29:17;;;;;;;9.68;4.22;;;;;;;3.35;100.00;102630.88;4931656;29;20051;-79
2023/04/04 06:31:43;;;;;;;6.97;3.60;;;;;;;3.57;100.00;102636.75;4938192;29;20537;-79
2023/04/04 06:34:09;;;;;;;10.80;4.03;;;;;;;3.50;100.00;102633.28;4955006;29;20240;-80
2023/04/04 06:36:35;;;;;;;10.20;3.95;;;;;;;3.59;100.00;102647.53;4926607;29;20444;-80
2023/04/04 06:39:03;;;;;;;8.65;4.10;;;;;;;3.67;100.00;102646.47;4920058;29;20040;-81
2023/04/04 06:41:29;;;;;;;8.43;3.67;;;;;;;4.13;100.00;102641.84;4919611;29;20042;-80
2023/04/04 06:43:54;;;;;;;10.98;3.88;;;;;;;4.17;100.00;102654.41;4928206;29;20048;-82
2023/04/04 06:46:20;;;;;;;7.97;3.78;;;;;;;4.26;100.00;102658.69;4935952;29;20143;-81
2023/04/04 06:48:45;;;;;;;5.43;3.58;;;;;;;4.50;100.00;102651.81;4919854;29;20048;-80
2023/04/04 06:51:11;;;;;;;9.50;3.63;;;;;;;4.93;100.00;102657.97;4930716;29;20108;-79
2023/04/04 06:53:37;;;;;;;10.82;4.00;;;;;;;4.84;100.00;102653.66;4938649;29;20032;-78
2023/04/04 06:56:03;;;;;;;9.93;3.90;;;;;;;4.89;100.00;102654.44;4922130;29;20040;-75
2023/04/04 06:58:29;;;;;;;9.20;4.22;;;;;;;4.93;100.00;102656.13;4932590;29;20039;-78
2023/04/04 07:00:55;;;;;;;8.38;3.35;;;;;;;5.33;100.00;102660.50;4927815;29;20407;-78
2023/04/04 07:03:23;;;;;;;6.78;3.90;;;;;;;5.60;100.00;102649.75;4899198;29;20028;-77
2023/04/04 07:05:48;;;;;;;9.68;3.95;;;;;;;5.95;100.00;102658.72;4920261;29;20428;-76
2023/04/04 07:08:14;;;;;;;7.55;4.05;;;;;;;5.35;100.00;102652.31;4929206;29;20047;-77
2023/04/04 07:10:39;;;;;;;11.93;4.25;;;;;;;5.48;100.00;102653.72;4922510;29;20107;-77
2023/04/04 07:13:05;;;;;;;6.13;3.60;;;;;;;5.46;100.00;102644.75;4889100;29;20487;-76
2023/04/04 07:15:30;;;;;;;12.10;4.55;;;;;;;5.92;100.00;102636.13;4904876;29;20036;-76
2023/04/04 07:17:56;;;;;;;13.27;4.75;;;;;;;6.07;90.66;102650.19;4935859;29;20079;-77
2023/04/04 07:20:22;;;;;;;10.18;3.97;;;;;;;6.27;94.94;102651.38;4935780;29;20039;-77
2023/04/04 07:22:47;;;;;;;10.27;4.43;;;;;;;6.07;98.54;102643.88;4952719;29;20488;-77
2023/04/04 07:25:13;;;;;;;10.82;4.28;;;;;;;6.47;97.39;102630.81;4928513;29;20031;-77
2023/04/04 07:27:39;;;;;;;9.93;4.10;;;;;;;6.96;87.75;102645.47;4924286;29;20032;-78
2023/04/04 07:30:07;;;;;;;12.75;4.55;;;;;;;6.88;85.08;102637.56;4945064;29;20554;-78
2023/04/04 07:32:36;;;;;;;12.02;4.32;;;;;;;6.48;83.82;102641.66;4912819;29;20043;-77
2023/04/04 07:35:04;;;;;;;10.10;4.38;;;;;;;6.67;82.46;102641.91;4915106;29;20040;-79
2023/04/04 07:37:29;;;;;;;15.95;5.15;;;;;;;6.78;82.61;102652.44;4922296;29;20044;-77
2023/04/04 07:39:55;;;;;;;10.25;4.30;;;;;;;7.22;80.87;102651.81;4885866;29;20330;-78
2023/04/04 07:42:24;;;;;;;13.88;4.32;;;;;;;7.27;77.86;102650.69;4917742;29;20483;-78
2023/04/04 07:44:50;;;;;;;10.18;4.32;;;;;;;6.93;79.96;102645.56;4932549;29;20058;-78
2023/04/04 07:47:16;;;;;;;11.60;5.20;;;;;;;7.30;76.78;102641.53;4917653;29;20520;-78
2023/04/04 07:49:42;;;;;;;10.63;4.18;;;;;;;8.03;72.99;102643.28;4920044;29;20032;-78
2023/04/04 07:52:07;;;;;;;9.43;3.80;;;;;;;8.31;67.23;102642.16;4945235;28;20511;-78
2023/04/04 07:54:33;;;;;;;9.40;3.08;;;;;;;8.78;63.77;102643.91;4949476;29;20123;-79
2023/04/04 07:56:59;;;;;;;13.30;3.67;;;;;;;9.46;59.39;102641.84;4915706;29;20110;-77
2023/04/04 07:59:25;;;;;;;11.23;3.67;;;;;;;8.80;60.17;102634.69;4928738;29;21225;-78
2023/04/04 08:01:50;;;;;;;8.95;2.95;;;;;;;9.19;60.90;102639.38;4931403;29;20038;-77
2023/04/04 08:04:16;;;;;;;12.57;3.53;;;;;;;9.01;62.35;102632.00;4920880;29;20087;-80
2023/04/04 08:06:41;;;;;;;8.70;3.72;;;;;;;10.02;58.54;102639.22;4917954;29;20032;-78
2023/04/04 08:09:06;;;;;;;10.45;3.58;;;;;;;9.94;57.80;102640.47;4929197;29;20048;-78
2023/04/04 08:11:32;;;;;;;9.50;2.83;;;;;;;9.36;57.78;102634.97;4938109;29;20039;-78
2023/04/04 08:13:57;;;;;;;7.90;3.28;;;;;;;9.45;58.02;102650.09;4922236;29;20040;-80
2023/04/04 08:16:23;;;;;;;7.93;2.90;;;;;;;9.70;55.83;102658.06;4908587;29;20066;-81
2023/04/04 08:18:48;;;;;;;9.38;3.22;;;;;;;9.94;54.69;102656.03;4922944;29;20501;-79
2023/04/04 08:21:14;;;;;;;10.88;2.78;;;;;;;10.13;52.72;102647.81;4922808;29;20067;-79
2023/04/04 08:23:40;;;;;;;5.35;2.47;;;;;;;10.50;50.63;102645.16;4902954;29;20448;-79
2023/04/04 08:26:05;;;;;;;19.08;2.55;;;;;;;11.14;47.32;102647.31;4935884;29;20055;-77
2023/04/04 08:28:31;;;;;;;6.45;2.20;;;;;;;9.98;47.99;102651.28;4934571;29;20385;-79
2023/04/04 08:30:56;;;;;;;4.72;2.25;;;;;;;10.25;47.83;102649.09;4942690;29;20423;-79
2023/04/04 08:33:23;;;;;;;10.27;2.20;;;;;;;10.79;47.17;102647.31;4913468;29;20043;-78
2023/04/04 08:35:49;;;;;;;10.07;2.15;;;;;;;10.24;45.33;102647.28;4929432;29;20035;-78
2023/04/04 08:38:15;;;;;;;5.75;1.95;;;;;;;11.22;44.97;102642.31;4946553;29;20090;-79
2023/04/04 08:40:40;;;;;;;3.60;1.80;;;;;;;11.06;44.49;102641.34;4928427;29;20093;-79
2023/04/04 08:43:07;;;;;;;4.28;1.90;;;;;;;11.56;42.94;102634.16;4925968;29;20399;-79
2023/04/04 08:45:34;;;;;;;6.78;1.92;;;;;;;11.37;42.67;102628.75;4933153;29;20036;-79
2023/04/04 08:48:02;;;;;;;8.07;1.90;;;;;;;11.48;42.50;102637.28;4927275;29;20063;-79
2023/04/04 08:50:28;;;;;;;8.48;2.15;;;;;;;11.84;42.88;102636.25;4922946;29;20044;-79
2023/04/04 08:52:55;;;;;;;10.93;2.45;;;;;;;12.39;41.56;102631.34;4943875;29;20083;-79
2023/04/04 08:55:21;;;;;;;11.48;2.78;;;;;;;11.65;43.96;102630.00;4909892;29;20032;-79
2023/04/04 08:57:47;;;;;;;6.90;1.88;;;;;;;11.33;41.27;102629.88;4942389;29;20110;-78
2023/04/04 09:00:15;;;;;;;6.90;1.50;;;;;;;10.76;41.19;102631.03;4925042;29;20044;-79
2023/04/04 09:03:13;;;;;;;8.38;1.90;;;;;;;12.62;40.26;102643.72;4932855;29;20118;-79
2023/04/04 09:05:39;;;;;;;14.43;1.75;;;;;;;11.65;41.15;102635.47;4925891;29;20460;-79
2023/04/04 09:08:07;;;;;;;4.72;1.67;;;;;;;12.14;40.65;102624.53;4925001;29;20059;-79
2023/04/04 09:10:34;;;;;;;7.65;2.20;;;;;;;11.55;42.29;102633.22;4925478;29;20031;-79
2023/04/04 09:13:02;;;;;;;5.50;1.88;;;;;;;11.26;41.84;102637.53;4909057;29;20036;-79
2023/04/04 09:15:28;;;;;;;10.20;2.17;;;;;;;11.58;41.69;102629.44;4925416;29;20046;-79
2023/04/04 09:17:54;;;;;;;9.30;2.30;;;;;;;11.12;42.49;102635.56;4924208;29;20179;-79
2023/04/04 09:20:35;;;;;;;8.80;2.20;;;;;;;12.02;42.36;102633.44;4920164;29;20812;-78
2023/04/04 09:23:04;;;;;;;9.25;1.85;;;;;;;11.64;41.79;102636.44;4925753;29;20035;-79
2023/04/04 09:25:29;;;;;;;8.05;1.73;;;;;;;10.63;40.96;102630.75;4924385;29;20040;-79
2023/04/04 09:27:56;;;;;;;5.10;1.73;;;;;;;11.09;42.10;102629.34;4942500;29;20049;-79
2023/04/04 09:30:22;;;;;;;6.18;2.30;;;;;;;11.36;44.83;102627.88;4909985;29;20043;-79
2023/04/04 09:32:48;;;;;;;10.52;1.73;;;;;;;11.31;40.27;102621.72;4956600;29;20980;-79
2023/04/04 09:35:14;;;;;;;6.55;1.92;;;;;;;11.61;40.67;102603.69;4925915;29;20039;-79
2023/04/04 09:37:41;;;;;;;6.40;2.38;;;;;;;11.03;40.89;102630.53;4942122;29;20551;-79
2023/04/04 09:40:10;;;;;;;6.32;2.00;;;;;;;11.44;41.23;102634.78;4924051;29;20039;-79
2023/04/04 09:42:35;;;;;;;9.15;2.95;;;;;;;11.62;41.08;102624.69;4903866;29;20036;-80
2023/04/04 09:45:01;;;;;;;7.78;2.28;;;;;;;12.59;41.20;102616.44;4910778;29;20138;-82
2023/04/04 09:47:32;;;;;;;6.88;2.15;;;;;;;11.81;41.71;102625.44;4943496;29;20122;-79
2023/04/04 09:49:59;;;;;;;5.80;2.03;;;;;;;11.10;42.69;102621.06;4951968;29;20432;-78
2023/04/04 09:52:25;;;;;;;8.48;2.40;;;;;;;11.36;40.79;102618.75;4921745;29;20047;-79
2023/04/04 09:54:55;;;;;;;9.15;2.40;;;;;;;11.82;42.39;102618.94;4945087;29;20031;-80
2023/04/04 09:57:21;;;;;;;8.15;1.77;;;;;;;10.94;41.19;102618.22;4936218;29;20058;-82
2023/04/04 09:59:47;;;;;;;8.68;2.50;;;;;;;11.32;41.45;102614.41;4907487;29;20047;-82
2023/04/04 10:02:12;;;;;;;10.20;2.72;;;;;;;11.42;41.78;102612.94;4922060;29;20046;-81
2023/04/04 10:04:38;;;;;;;7.22;2.13;;;;;;;11.64;42.01;102609.91;4920661;29;20044;-79
2023/04/04 10:07:03;;;;;;;13.13;2.47;;;;;;;11.88;41.83;102599.41;4921215;29;20922;-81
2023/04/04 10:09:29;;;;;;;8.38;2.28;;;;;;;11.93;41.73;102607.41;4927678;29;20035;-81
2023/04/04 10:12:16;;;;;;;6.93;1.73;;;;;;;11.72;40.85;102601.22;4921604;29;20040;-82
2023/04/04 10:14:41;;;;;;;9.07;2.35;;;;;;;12.42;38.40;102618.31;4940250;29;20035;-81
2023/04/04 10:17:12;;;;;;;8.45;3.03;;;;;;;12.29;40.67;102607.16;4937598;29;20467;-82
2023/04/04 10:19:38;;;;;;;10.18;2.20;;;;;;;11.84;41.78;102606.06;4904896;29;20115;-81
2023/04/04 10:22:08;;;;;;;6.70;1.70;;;;;;;11.44;41.50;102601.88;4948212;29;20086;-82
2023/04/04 10:24:34;;;;;;;8.10;1.80;;;;;;;11.06;39.56;102607.59;4903633;29;20035;-82
2023/04/04 10:27:00;;;;;;;6.25;1.45;;;;;;;12.13;40.52;102592.53;4917952;29;20032;-80
2023/04/04 10:29:26;;;;;;;3.92;2.10;;;;;;;12.52;37.43;102596.66;4961412;28;20046;-81
2023/04/04 10:32:04;;;;;;;6.90;1.83;;;;;;;12.34;39.26;102595.03;4920838;29;20043;-81
2023/04/04 10:34:44;;;;;;;9.02;2.15;;;;;;;12.18;39.26;102600.50;4935226;29;20407;-80
2023/04/04 10:37:16;;;;;;;9.10;2.28;;;;;;;12.17;39.07;102594.16;4924182;29;20039;-81
2023/04/04 10:39:42;;;;;;;6.68;1.92;;;;;;;11.94;40.47;102596.34;4916779;29;20502;-81
2023/04/04 10:42:09;;;;;;;4.78;1.77;;;;;;;12.30;40.47;102597.94;4942328;29;20035;-81
2023/04/04 10:44:38;;;;;;;5.25;1.75;;;;;;;12.70;38.83;102591.94;4919264;29;20047;-80
2023/04/04 10:47:18;;;;;;;3.67;2.05;;;;;;;11.78;38.09;102599.03;4935439;28;20047;-81
2023/04/04 10:49:45;;;;;;;5.93;2.35;;;;;;;11.95;38.21;102586.25;4938308;29;20039;-81
2023/04/04 10:52:23;;;;;;;9.18;2.25;;;;;;;12.08;38.69;102583.69;4920627;29;20071;-81
2023/04/04 10:54:55;;;;;;;6.03;2.22;;;;;;;11.57;40.32;102573.66;4936008;29;20039;-80
2023/04/04 10:57:22;;;;;;;5.60;1.85;;;;;;;12.17;40.77;102568.53;4948069;29;20024;-80
2023/04/04 11:00:08;;;;;;;4.78;1.73;;;;;;;12.72;39.24;102570.72;4921474;29;20030;-80
2023/04/04 11:02:49;;;;;;;8.68;2.08;;;;;;;12.17;38.61;102580.41;4934442;29;20035;-79
2023/04/04 11:05:21;;;;;;;2.97;1.48;;;;;;;11.72;37.98;102577.44;4933775;29;20055;-80
2023/04/04 11:07:52;;;;;;;3.97;1.65;;;;;;;11.54;39.12;102562.91;4935805;29;20039;-80
2023/04/04 11:10:23;;;;;;;5.95;1.58;;;;;;;12.01;38.24;102561.19;4905818;29;20487;-80
2023/04/04 11:12:53;;;;;;;5.25;1.63;;;;;;;12.41;39.15;102553.38;4945886;29;20038;-81
2023/04/04 11:15:25;;;;;;;7.00;2.15;;;;;;;11.89;40.75;102560.00;4907843;29;20058;-81
2023/04/04 11:17:55;;;;;;;8.05;1.90;;;;;;;11.57;39.02;102564.56;4951860;28;20062;-83
2023/04/04 11:20:33;;;;;;;10.00;2.72;;;;;;;12.21;39.24;102550.91;4935871;29;20609;-82
2023/04/04 11:23:18;;;;;;;3.85;1.75;;;;;;;11.34;37.82;102550.25;4936067;29;20122;-79